Time;durP1;ratioP1;P1;durP2;ratioP2;P2;SDS_P1;SDS_P2;PMS_P1;PMS_P2;Temp;Humidity;BMP_temperature;BMP_pressure;BME280_temperature;BME280_humidity;BME280_pressure;Samples;Min_cycle;Max_cycle;Signal;HPM_P1;HPM_P2
2022/05/31 00:01:09;;;;;;;6.93;6.22;;;;;;;10.02;100.00;100312.19;4485990;31;20167;-64
2022/05/31 00:03:37;;;;;;;10.55;6.82;;;;;;;10.02;100.00;100306.91;4485954;31;20125;-64
2022/05/31 00:06:04;;;;;;;8.13;7.07;;;;;;;9.97;100.00;100306.97;4485886;31;20131;-64
2022/05/31 00:08:32;;;;;;;8.48;6.30;;;;;;;9.98;100.00;100313.09;4485838;31;20489;-64
2022/05/31 00:11:00;;;;;;;8.00;7.20;;;;;;;10.03;100.00;100300.75;4485727;31;20076;-64
2022/05/31 00:13:27;;;;;;;7.93;6.47;;;;;;;10.01;100.00;100300.78;4485760;31;20118;-64
2022/05/31 00:15:55;;;;;;;11.32;7.03;;;;;;;9.91;100.00;100299.13;4485685;31;20179;-64
2022/05/31 00:18:22;;;;;;;6.35;5.72;;;;;;;9.87;100.00;100292.16;4485810;31;20150;-64
2022/05/31 00:20:49;;;;;;;7.53;5.93;;;;;;;9.86;100.00;100294.78;4485809;31;20100;-64
2022/05/31 00:23:17;;;;;;;7.95;5.78;;;;;;;9.81;100.00;100298.34;4485845;31;20478;-64
2022/05/31 00:25:45;;;;;;;10.25;6.62;;;;;;;9.80;100.00;100303.62;4485767;31;20836;-64
2022/05/31 00:28:13;;;;;;;9.15;5.57;;;;;;;9.91;100.00;100303.53;4485825;31;20444;-64
2022/05/31 00:30:40;;;;;;;9.80;5.95;;;;;;;9.93;100.00;100309.62;4484975;31;20152;-64
2022/05/31 00:33:10;;;;;;;7.72;6.60;;;;;;;9.95;100.00;100306.09;4485998;31;20114;-64
2022/05/31 00:35:40;;;;;;;6.97;6.07;;;;;;;10.02;100.00;100315.69;4485715;31;20140;-64
2022/05/31 00:38:08;;;;;;;8.93;6.45;;;;;;;10.05;100.00;100315.66;4485847;31;20187;-64
2022/05/31 00:40:36;;;;;;;7.90;6.15;;;;;;;10.08;100.00;100319.16;4485709;31;20092;-64
2022/05/31 00:43:13;;;;;;;9.57;6.65;;;;;;;9.98;100.00;100319.22;4485800;31;20091;-64
2022/05/31 00:45:44;;;;;;;8.32;6.40;;;;;;;9.85;100.00;100320.25;4485772;31;20516;-64
2022/05/31 00:48:23;;;;;;;7.62;6.93;;;;;;;9.74;100.00;100325.59;4485984;31;20099;-64
2022/05/31 00:50:58;;;;;;;9.45;6.95;;;;;;;9.66;100.00;100323.94;4485865;31;20458;-64
2022/05/31 00:53:33;;;;;;;8.50;6.37;;;;;;;9.62;100.00;100327.50;4485736;31;20107;-64
2022/05/31 00:56:09;;;;;;;7.57;6.30;;;;;;;9.61;100.00;100331.91;4485684;31;20490;-64
2022/05/31 00:58:41;;;;;;;10.65;6.43;;;;;;;9.57;100.00;100335.41;4485863;31;20129;-64
2022/05/31 01:01:16;;;;;;;8.30;6.53;;;;;;;9.54;100.00;100336.34;4485894;31;20076;-64
2022/05/31 01:03:44;;;;;;;8.60;6.85;;;;;;;9.55;100.00;100331.94;4485618;31;20159;-64
2022/05/31 01:06:12;;;;;;;7.97;7.07;;;;;;;9.54;100.00;100335.44;4485587;31;20108;-64
2022/05/31 01:08:44;;;;;;;6.70;5.70;;;;;;;9.54;100.00;100336.34;4485510;31;20176;-64
2022/05/31 01:11:17;;;;;;;7.37;5.87;;;;;;;9.51;100.00;100336.34;4485648;31;20068;-64
2022/05/31 01:13:48;;;;;;;10.82;6.07;;;;;;;9.48;100.00;100340.75;4485811;31;20084;-64
2022/05/31 01:16:22;;;;;;;7.70;6.75;;;;;;;9.45;100.00;100346.91;4485657;31;20151;-64
2022/05/31 01:19:02;;;;;;;7.85;6.22;;;;;;;9.42;100.00;100352.19;4485526;31;20111;-64
2022/05/31 01:21:34;;;;;;;7.53;6.10;;;;;;;9.40;100.00;100355.72;4485636;31;20465;-64
2022/05/31 01:24:12;;;;;;;10.00;5.90;;;;;;;9.40;100.00;100353.97;4485467;31;20099;-64
2022/05/31 01:27:14;;;;;;;;;;;;;;;9.41;100.00;100358.34;4485689;31;20112;-64
2022/05/31 01:29:45;;;;;;;8.32;6.35;;;;;;;9.39;100.00;100352.22;4404375;32;20357;-64
2022/05/31 01:32:13;;;;;;;9.55;6.28;;;;;;;9.32;100.00;100354.00;4471397;31;20099;-64
2022/05/31 01:35:26;;;;;;;6.82;6.18;;;;;;;9.40;100.00;100359.25;4485215;31;20099;-64
2022/05/31 01:38:01;;;;;;;5.78;5.10;;;;;;;9.41;100.00;100355.72;4482480;31;20204;-64
2022/05/31 01:40:47;;;;;;;9.65;6.18;;;;;;;9.41;100.00;100360.97;4485400;31;20087;-64
2022/05/31 01:43:15;;;;;;;7.22;6.53;;;;;;;9.39;100.00;100356.59;4487167;31;20079;-64
2022/05/31 01:45:58;;;;;;;6.70;5.95;;;;;;;9.36;100.00;100357.50;4487186;31;20183;-64
2022/05/31 01:48:30;;;;;;;7.68;6.15;;;;;;;9.43;100.00;100361.81;4487128;31;20511;-64
2022/05/31 01:50:57;;;;;;;8.18;5.93;;;;;;;9.38;100.00;100365.38;4487185;31;20092;-64
2022/05/31 01:53:25;;;;;;;9.05;6.18;;;;;;;9.28;100.00;100365.44;4486885;31;20118;-64
2022/05/31 01:55:53;;;;;;;8.10;5.78;;;;;;;9.21;100.00;100358.47;4487147;31;20099;-64
2022/05/31 01:58:25;;;;;;;7.60;6.10;;;;;;;9.25;100.00;100364.59;4487032;31;20108;-64
2022/05/31 02:00:52;;;;;;;8.63;6.07;;;;;;;9.22;100.00;100364.59;4486892;31;20104;-64
2022/05/31 02:03:21;;;;;;;7.20;6.15;;;;;;;9.17;100.00;100366.41;4486917;31;20083;-64
2022/05/31 02:05:53;;;;;;;7.57;5.68;;;;;;;9.13;100.00;100368.19;4487063;31;20198;-64
2022/05/31 02:08:25;;;;;;;6.93;5.65;;;;;;;9.15;100.00;100370.78;4487155;31;20088;-64
2022/05/31 02:10:54;;;;;;;7.95;5.82;;;;;;;9.12;100.00;100366.44;4486858;31;20100;-64
2022/05/31 02:13:27;;;;;;;5.72;5.18;;;;;;;9.35;100.00;100366.28;4486921;31;20076;-64
2022/05/31 02:15:54;;;;;;;6.57;5.90;;;;;;;9.64;100.00;100368.66;4487012;31;20479;-64
2022/05/31 02:19:15;;;;;;;9.88;5.97;;;;;;;9.69;100.00;100369.53;4486966;31;20436;-64
2022/05/31 02:21:13;;;;;;;9.43;6.22;;;;;;;9.63;100.00;100366.06;4486483;31;20897;-64
2022/05/31 02:23:40;;;;;;;7.72;5.35;;;;;;;9.54;100.00;100364.38;4472172;31;20112;-64
2022/05/31 02:26:08;;;;;;;6.87;5.60;;;;;;;9.54;100.00;100365.25;4486667;31;20100;-64
2022/05/31 02:28:35;;;;;;;8.90;5.35;;;;;;;9.44;100.00;100362.72;4486617;31;20439;-64
2022/05/31 02:31:03;;;;;;;7.37;5.40;;;;;;;9.35;100.00;100366.28;4486705;31;20508;-64
2022/05/31 02:33:30;;;;;;;10.48;5.80;;;;;;;9.26;100.00;100367.22;4486646;31;20081;-64
2022/05/31 02:35:57;;;;;;;6.80;5.97;;;;;;;9.14;100.00;100371.69;4486727;31;20152;-64
2022/05/31 02:38:25;;;;;;;12.07;5.60;;;;;;;9.08;100.00;100378.72;4486614;31;20099;-64
2022/05/31 02:40:52;;;;;;;7.35;5.82;;;;;;;9.10;100.00;100391.84;4486728;31;20427;-64
2022/05/31 02:43:20;;;;;;;6.97;6.18;;;;;;;9.00;100.00;100380.50;4486504;31;20083;-64
2022/05/31 02:45:48;;;;;;;6.72;5.70;;;;;;;8.97;100.00;100383.16;4486384;31;20091;-64
2022/05/31 02:48:15;;;;;;;7.85;5.97;;;;;;;8.99;100.00;100394.53;4486533;31;20180;-64
2022/05/31 02:50:43;;;;;;;7.35;5.62;;;;;;;9.06;100.00;100396.25;4486669;31;20108;-64
2022/05/31 02:53:10;;;;;;;6.12;5.53;;;;;;;9.05;100.00;100393.66;4485926;31;20527;-64
2022/05/31 02:55:37;;;;;;;8.70;5.40;;;;;;;9.04;100.00;100389.25;4486550;31;20456;-64
2022/05/31 02:58:11;;;;;;;6.07;4.93;;;;;;;9.14;100.00;100387.44;4486580;31;20138;-64
2022/05/31 03:00:43;;;;;;;12.10;5.72;;;;;;;9.14;100.00;100393.56;4486535;31;20092;-64
2022/05/31 03:03:18;;;;;;;7.07;5.18;;;;;;;9.18;100.00;100390.03;4486401;31;20452;-64
2022/05/31 03:05:52;;;;;;;8.18;5.82;;;;;;;9.12;100.00;100390.09;4486525;31;20125;-64
2022/05/31 03:08:20;;;;;;;7.18;5.55;;;;;;;9.08;100.00;100389.25;4486240;31;20117;-64
2022/05/31 03:10:53;;;;;;;8.90;5.37;;;;;;;9.17;100.00;100393.56;4486406;31;20104;-64
2022/05/31 03:13:25;;;;;;;8.88;5.68;;;;;;;9.27;100.00;100389.13;4486124;31;20080;-64
2022/05/31 03:15:57;;;;;;;7.70;5.40;;;;;;;9.28;100.00;100381.22;4486270;31;20101;-64
2022/05/31 03:18:33;;;;;;;9.65;5.68;;;;;;;9.27;100.00;100379.47;4486226;31;20088;-64
2022/05/31 03:21:08;;;;;;;9.57;5.35;;;;;;;9.42;100.00;100381.12;4486325;31;20104;-64
2022/05/31 03:23:52;;;;;;;8.13;5.32;;;;;;;9.47;100.00;100381.97;4486235;31;20497;-64
2022/05/31 03:26:22;;;;;;;8.90;4.95;;;;;;;9.47;100.00;100381.06;4486257;31;20084;-64
2022/05/31 03:28:50;;;;;;;9.13;4.40;;;;;;;9.51;100.00;100386.31;4486121;31;20453;-64
2022/05/31 03:31:18;;;;;;;11.85;5.10;;;;;;;9.58;100.00;100382.75;4486249;31;20091;-64
2022/05/31 03:33:45;;;;;;;6.55;4.90;;;;;;;9.55;100.00;100387.19;4486206;31;20143;-64
2022/05/31 03:36:14;;;;;;;6.05;4.40;;;;;;;9.54;100.00;100388.03;4486256;31;20130;-64
2022/05/31 03:38:42;;;;;;;7.55;4.80;;;;;;;9.55;100.00;100389.81;4486162;31;20539;-64
2022/05/31 03:41:10;;;;;;;5.95;5.25;;;;;;;9.58;100.00;100380.13;4486020;31;20546;-64
2022/05/31 03:43:38;;;;;;;11.02;5.62;;;;;;;9.79;100.00;100380.84;4486342;31;20490;-64
2022/05/31 03:46:12;;;;;;;5.95;5.03;;;;;;;9.89;100.00;100382.47;4486276;31;20096;-64
2022/05/31 03:48:39;;;;;;;12.02;4.35;;;;;;;9.98;100.00;100390.31;4486225;31;20195;-64
2022/05/31 03:51:09;;;;;;;10.80;4.82;;;;;;;10.14;100.00;100395.41;4486030;31;20107;-64
2022/05/31 03:53:38;;;;;;;8.38;5.15;;;;;;;10.26;100.00;100396.22;4486126;31;20101;-64
2022/05/31 03:56:09;;;;;;;7.37;5.25;;;;;;;10.34;100.00;100392.63;4486119;31;20160;-64
2022/05/31 03:58:37;;;;;;;6.60;4.87;;;;;;;10.36;100.00;100401.38;4486135;31;20172;-64
2022/05/31 04:01:04;;;;;;;7.20;5.00;;;;;;;10.46;100.00;100401.28;4486191;31;20122;-64
2022/05/31 04:03:33;;;;;;;15.63;7.30;;;;;;;10.52;100.00;100409.09;4485949;31;20079;-65
2022/05/31 04:06:04;;;;;;;42.65;20.70;;;;;;;10.61;100.00;100409.87;4471030;31;20495;-65
2022/05/31 04:08:32;;;;;;;25.60;10.32;;;;;;;10.66;100.00;100403.66;4486020;31;20193;-65
2022/05/31 04:10:59;;;;;;;9.50;7.00;;;;;;;10.87;100.00;100415.69;4486011;31;20126;-65
2022/05/31 04:13:28;;;;;;;11.77;5.70;;;;;;;10.73;100.00;100420.28;4485964;31;20084;-65
2022/05/31 04:16:03;;;;;;;9.73;5.55;;;;;;;10.97;100.00;100417.31;4486616;31;20072;-65
2022/05/31 04:18:31;;;;;;;10.60;5.12;;;;;;;11.07;100.00;100406.69;4485951;31;20141;-65
2022/05/31 04:21:00;;;;;;;6.40;5.07;;;;;;;11.14;100.00;100416.25;4485624;31;20417;-65
2022/05/31 04:26:18;;;;;;;7.30;5.40;;;;;;;11.30;98.36;100407.19;4485966;31;20088;-65
2022/05/31 04:28:49;;;;;;;9.82;5.15;;;;;;;11.38;98.92;100410.63;4485773;31;20100;-65
2022/05/31 04:31:22;;;;;;;7.18;4.68;;;;;;;11.42;99.32;100404.41;4471020;31;20511;-65
2022/05/31 04:33:52;;;;;;;9.57;5.22;;;;;;;11.56;97.29;100403.31;4485835;31;20079;-65
2022/05/31 04:36:22;;;;;;;5.85;5.10;;;;;;;11.58;97.58;100404.16;4486021;31;20092;-65
2022/05/31 04:38:49;;;;;;;7.97;5.07;;;;;;;11.66;97.53;100402.25;4485163;31;20191;-65
2022/05/31 04:41:22;;;;;;;7.40;5.15;;;;;;;11.84;96.41;100404.66;4485850;31;20175;-65
2022/05/31 04:43:55;;;;;;;7.40;5.15;;;;;;;12.02;94.95;100403.47;4485836;31;20105;-65
2022/05/31 04:46:26;;;;;;;14.75;5.32;;;;;;;12.13;95.00;100405.91;4485690;31;20104;-65
2022/05/31 04:48:57;;;;;;;10.25;5.37;;;;;;;12.23;94.97;100393.41;4471261;31;20111;-65
2022/05/31 04:51:27;;;;;;;7.07;4.87;;;;;;;12.41;94.51;100396.56;4485519;31;20150;-65
2022/05/31 04:53:56;;;;;;;13.77;4.45;;;;;;;12.48;95.14;100397.34;4485354;31;20394;-65
2022/05/31 04:56:24;;;;;;;9.07;4.30;;;;;;;12.64;92.36;100400.53;4485730;31;20503;-65
2022/05/31 04:58:54;;;;;;;7.68;4.70;;;;;;;12.82;90.23;100401.94;4485633;31;20430;-65
2022/05/31 05:01:23;;;;;;;9.48;5.62;;;;;;;12.84;90.81;100398.34;4485113;31;20182;-65
2022/05/31 05:03:53;;;;;;;7.10;5.15;;;;;;;12.92;90.94;100404.34;4485266;31;20091;-65
2022/05/31 05:06:27;;;;;;;7.07;5.67;;;;;;;13.05;91.48;100398.81;4485449;31;20084;-65
2022/05/31 05:08:55;;;;;;;9.70;5.03;;;;;;;12.84;92.70;100397.50;4485475;31;20188;-65
2022/05/31 05:11:24;;;;;;;13.73;4.47;;;;;;;12.89;92.44;100403.53;4485158;31;20147;-65
2022/05/31 05:13:55;;;;;;;9.70;4.90;;;;;;;13.07;89.32;100410.22;4485302;31;20510;-65
2022/05/31 05:16:25;;;;;;;7.12;4.50;;;;;;;13.07;91.69;100404.91;4484835;31;20193;-65
2022/05/31 05:18:54;;;;;;;8.20;4.60;;;;;;;13.25;90.07;100411.59;4470171;31;20127;-65
2022/05/31 05:21:22;;;;;;;12.27;4.40;;;;;;;13.10;90.93;100413.66;4485287;31;20175;-65
2022/05/31 05:23:50;;;;;;;9.07;4.28;;;;;;;13.21;90.84;100418.72;4484738;31;20114;-65
2022/05/31 05:26:18;;;;;;;5.80;4.07;;;;;;;13.24;90.79;100421.31;4484474;31;20091;-65
2022/05/31 05:31:39;;;;;;;6.00;3.60;;;;;;;13.60;88.14;100416.09;4484865;31;20100;-65
2022/05/31 05:34:15;;;;;;;4.40;4.00;;;;;;;13.67;87.88;100417.69;4484737;31;20140;-65
2022/05/31 05:36:42;;;;;;;7.00;4.32;;;;;;;13.70;88.64;100419.41;4484785;31;20105;-65
2022/05/31 05:39:10;;;;;;;8.38;3.55;;;;;;;13.83;89.06;100416.41;4483920;31;20104;-65
2022/05/31 05:41:42;;;;;;;8.27;3.92;;;;;;;14.01;87.18;100416.87;4484433;31;20087;-65
2022/05/31 05:44:13;;;;;;;4.15;3.50;;;;;;;14.09;86.42;100418.41;4484967;31;20526;-65
2022/05/31 05:46:41;;;;;;;6.55;4.22;;;;;;;14.24;86.34;100422.44;4484470;31;20175;-65
2022/05/31 05:49:08;;;;;;;10.75;4.00;;;;;;;14.40;84.03;100420.25;4484787;31;20192;-65
2022/05/31 05:51:36;;;;;;;9.32;3.50;;;;;;;14.52;83.42;100409.34;4484604;31;20103;-65
2022/05/31 05:54:09;;;;;;;9.40;3.78;;;;;;;14.73;83.82;100413.16;4484657;31;20088;-66
2022/05/31 05:56:46;;;;;;;19.30;3.92;;;;;;;14.55;84.88;100418.97;4484438;31;20100;-66
2022/05/31 05:59:23;;;;;;;10.80;3.83;;;;;;;14.75;83.68;100418.44;4485164;31;20096;-65
2022/05/31 06:02:06;;;;;;;4.40;3.10;;;;;;;14.97;81.76;100423.97;4484997;31;20103;-64
2022/05/31 06:05:09;;;;;;;7.70;4.22;;;;;;;14.81;80.60;100421.78;4482715;31;20161;-65
2022/05/31 06:07:45;;;;;;;8.02;3.60;;;;;;;14.78;83.07;100421.00;4497333;31;20446;-65
2022/05/31 06:10:17;;;;;;;5.05;2.80;;;;;;;14.87;80.97;100419.84;4500688;31;20134;-64
2022/05/31 06:12:52;;;;;;;5.45;3.03;;;;;;;15.08;80.71;100429.84;4499155;31;20118;-64
2022/05/31 06:15:28;;;;;;;5.18;3.45;;;;;;;15.28;80.68;100419.50;4492701;31;20084;-64
2022/05/31 06:17:59;;;;;;;4.77;3.63;;;;;;;15.29;79.81;100420.34;4500137;31;20156;-64
2022/05/31 06:20:29;;;;;;;4.78;4.35;;;;;;;15.28;79.34;100432.78;4499897;31;20077;-64
2022/05/31 06:22:58;;;;;;;7.28;3.83;;;;;;;15.25;79.66;100435.50;4500792;31;20112;-64
2022/05/31 06:25:25;;;;;;;5.95;3.90;;;;;;;15.31;78.90;100431.81;4484981;31;20162;-64
2022/05/31 06:27:53;;;;;;;4.65;3.70;;;;;;;15.34;79.79;100431.72;4500638;31;20095;-64
2022/05/31 06:30:20;;;;;;;5.50;4.32;;;;;;;15.42;79.30;100436.78;4503007;31;20115;-64
2022/05/31 06:32:48;;;;;;;5.87;4.12;;;;;;;15.47;78.46;100438.38;4502943;31;20411;-64
2022/05/31 06:35:15;;;;;;;6.78;5.37;;;;;;;15.43;78.86;100450.00;4502781;31;20114;-64
2022/05/31 06:37:42;;;;;;;7.95;4.32;;;;;;;15.51;78.85;100448.00;4502911;31;20100;-65
2022/05/31 06:40:11;;;;;;;13.82;4.25;;;;;;;15.66;78.17;100443.16;4502314;31;20122;-65
2022/05/31 06:42:39;;;;;;;4.03;3.50;;;;;;;15.90;76.52;100446.78;4502324;31;20138;-65
2022/05/31 06:45:13;;;;;;;20.77;3.80;;;;;;;16.09;75.54;100449.72;4502843;31;20079;-65
2022/05/31 06:47:45;;;;;;;7.12;3.47;;;;;;;16.11;75.61;100445.22;4500782;31;20091;-65
2022/05/31 06:50:13;;;;;;;3.42;3.10;;;;;;;16.21;72.78;100446.63;4502369;31;20183;-65
2022/05/31 06:58:21;;;;;;;6.57;2.65;;;;;;;16.39;71.19;100443.34;4501076;31;20474;-65
2022/05/31 07:00:48;;;;;;;6.35;2.70;;;;;;;16.46;71.49;100441.34;4502281;31;20130;-65
2022/05/31 07:03:15;;;;;;;6.12;2.72;;;;;;;16.47;69.22;100441.31;4486308;31;20107;-65
2022/05/31 07:05:43;;;;;;;6.70;2.90;;;;;;;16.60;69.66;100441.72;4485554;31;20168;-65
2022/05/31 07:08:12;;;;;;;9.23;2.92;;;;;;;16.60;69.90;100439.06;4485619;31;20423;-65
2022/05/31 07:10:43;;;;;;;2.70;1.90;;;;;;;16.75;68.98;100437.69;4486373;31;20557;-65
2022/05/31 07:13:15;;;;;;;9.75;2.37;;;;;;;16.84;68.00;100431.16;4486750;31;20188;-65
2022/05/31 07:15:50;;;;;;;2.70;2.42;;;;;;;17.14;68.62;100440.66;4486038;31;20099;-65
2022/05/31 07:18:42;;;;;;;4.05;2.30;;;;;;;17.32;66.77;100444.41;4486209;31;20180;-65
2022/05/31 07:21:10;;;;;;;6.68;2.28;;;;;;;17.38;66.68;100444.16;4486380;31;20188;-65
2022/05/31 07:23:43;;;;;;;6.20;2.25;;;;;;;17.59;65.89;100446.91;4486171;31;20121;-65
2022/05/31 07:26:12;;;;;;;3.60;1.98;;;;;;;17.95;64.70;100449.03;4486588;31;20113;-65
2022/05/31 07:29:00;;;;;;;3.95;2.80;;;;;;;18.09;64.00;100447.56;4501063;31;20352;-65
2022/05/31 07:31:28;;;;;;;5.50;2.03;;;;;;;18.21;62.80;100439.97;4499817;31;20095;-65
2022/05/31 07:33:58;;;;;;;2.75;2.53;;;;;;;18.14;63.64;100444.69;4499306;31;20119;-65
2022/05/31 07:36:25;;;;;;;2.87;2.42;;;;;;;18.24;64.18;100448.69;4499385;31;20090;-65
2022/05/31 07:38:54;;;;;;;8.80;2.62;;;;;;;18.33;63.26;100444.75;4501991;31;20529;-65
2022/05/31 07:41:22;;;;;;;6.30;2.60;;;;;;;18.73;63.34;100443.03;4500989;31;20088;-65
2022/05/31 07:43:49;;;;;;;15.80;2.45;;;;;;;18.91;61.38;100436.91;4501497;31;20119;-65
2022/05/31 07:46:19;;;;;;;6.30;2.95;;;;;;;19.15;60.98;100445.56;4502348;31;20502;-65
2022/05/31 07:48:46;;;;;;;6.32;3.47;;;;;;;18.99;60.52;100441.88;4502276;31;20759;-65
2022/05/31 07:51:16;;;;;;;4.62;3.10;;;;;;;19.08;60.66;100450.34;4501956;31;20088;-65
2022/05/31 07:53:51;;;;;;;5.25;2.80;;;;;;;19.47;59.42;100444.06;4502169;31;20084;-65
2022/05/31 07:56:23;;;;;;;6.43;2.92;;;;;;;19.60;59.55;100452.34;4501678;31;20110;-65
2022/05/31 07:58:57;;;;;;;7.37;3.00;;;;;;;19.78;57.88;100456.81;4501930;31;20117;-65
2022/05/31 08:01:33;;;;;;;4.97;2.90;;;;;;;19.78;57.18;100458.63;4501991;31;20770;-65
2022/05/31 08:04:02;;;;;;;4.32;3.17;;;;;;;19.59;57.78;100448.81;4500646;31;20136;-65
2022/05/31 08:06:31;;;;;;;7.30;2.55;;;;;;;19.69;57.39;100453.75;4500316;31;20079;-65
2022/05/31 08:08:58;;;;;;;14.35;3.10;;;;;;;20.10;57.07;100453.50;4499443;31;20103;-66
2022/05/31 08:11:29;;;;;;;6.20;2.67;;;;;;;20.30;54.64;100458.72;4499994;31;20130;-65
2022/05/31 08:13:57;;;;;;;5.07;2.92;;;;;;;20.76;54.94;100459.03;4494915;31;20104;-65
2022/05/31 08:16:26;;;;;;;4.07;2.90;;;;;;;20.33;55.47;100457.72;4490840;31;20104;-65
2022/05/31 08:18:55;;;;;;;8.23;2.58;;;;;;;20.68;54.55;100463.94;4485874;31;20514;-65
2022/05/31 08:21:30;;;;;;;11.85;2.42;;;;;;;21.25;53.22;100464.44;4486686;31;20091;-65
2022/05/31 08:24:07;;;;;;;116.60;14.23;;;;;;;21.57;53.32;100469.84;4486039;31;20514;-66
2022/05/31 08:26:54;;;;;;;4.05;2.65;;;;;;;21.74;51.60;100461.72;4502217;31;20084;-63
2022/05/31 08:29:23;;;;;;;14.60;3.55;;;;;;;21.08;52.36;100459.12;4501975;31;20732;-63
2022/05/31 08:31:50;;;;;;;7.03;2.80;;;;;;;21.48;51.57;100466.75;4494776;31;20100;-63
2022/05/31 08:34:17;;;;;;;5.20;2.85;;;;;;;22.17;50.98;100470.00;4485945;31;20273;-63
2022/05/31 08:36:44;;;;;;;5.12;3.15;;;;;;;22.10;48.97;100468.59;4496486;31;20108;-63
2022/05/31 08:39:11;;;;;;;5.87;3.10;;;;;;;22.30;49.10;100460.28;4485626;31;20096;-63
2022/05/31 08:41:50;;;;;;;6.47;2.58;;;;;;;22.67;47.15;100466.97;4485574;31;20160;-63
2022/05/31 08:44:33;;;;;;;4.65;2.62;;;;;;;22.61;47.00;100463.78;4485919;31;20108;-63
2022/05/31 08:47:15;;;;;;;47.17;3.87;;;;;;;23.16;46.88;100465.81;4485647;31;20072;-63
2022/05/31 08:53:05;;;;;;;20.12;3.25;;;;;;;22.42;47.46;100459.53;4495011;31;20157;-63
2022/05/31 08:58:32;;;;;;;2.95;2.65;;;;;;;22.42;48.33;100462.22;4493860;31;20087;-63
2022/05/31 09:01:03;;;;;;;6.55;2.58;;;;;;;22.10;48.17;100466.78;4501734;31;20117;-63
2022/05/31 09:03:43;;;;;;;5.28;2.47;;;;;;;21.88;50.08;100467.16;4487056;31;20181;-63
2022/05/31 09:06:15;;;;;;;11.40;2.70;;;;;;;22.42;48.82;100461.38;4501865;31;20091;-63
2022/05/31 09:08:51;;;;;;;4.87;2.50;;;;;;;23.08;48.60;100471.66;4496259;31;20087;-63
2022/05/31 09:11:37;;;;;;;23.40;3.00;;;;;;;23.25;46.29;100467.91;4485833;31;20490;-62
2022/05/31 09:14:13;;;;;;;9.40;2.90;;;;;;;22.91;46.42;100459.22;4485034;31;20454;-64
2022/05/31 09:16:50;;;;;;;9.10;3.22;;;;;;;21.83;49.01;100460.31;4500655;31;20183;-63
2022/05/31 09:19:26;;;;;;;11.15;2.97;;;;;;;22.13;48.09;100452.31;4501124;31;20098;-63
2022/05/31 09:21:54;;;;;;;2.65;2.08;;;;;;;23.01;47.44;100450.66;4501238;31;20952;-63
2022/05/31 09:24:22;;;;;;;5.32;2.22;;;;;;;22.60;48.33;100445.97;4492769;31;20095;-63
2022/05/31 09:27:06;;;;;;;8.02;2.83;;;;;;;23.31;46.38;100458.59;4495581;31;20118;-64
2022/05/31 09:29:43;;;;;;;8.90;3.03;;;;;;;23.25;46.01;100453.59;4498370;31;20105;-63
2022/05/31 09:32:22;;;;;;;7.70;2.53;;;;;;;23.65;45.28;100446.53;4491660;31;20144;-64
2022/05/31 09:35:19;;;;;;;6.05;3.08;;;;;;;23.91;44.42;100457.41;4489229;31;20531;-63
2022/05/31 09:37:58;;;;;;;4.53;2.53;;;;;;;23.40;45.30;100454.47;4471378;31;20112;-63
2022/05/31 09:40:43;;;;;;;6.78;3.00;;;;;;;23.66;45.01;100448.25;4485062;31;20673;-63
2022/05/31 09:43:16;;;;;;;8.32;2.53;;;;;;;23.17;46.37;100453.22;4493919;31;20084;-64
2022/05/31 09:45:49;;;;;;;13.88;2.58;;;;;;;23.33;45.66;100454.84;4500795;31;20177;-64
2022/05/31 09:48:16;;;;;;;10.77;2.85;;;;;;;24.01;45.36;100450.47;4501125;31;20103;-64
2022/05/31 09:50:44;;;;;;;5.00;2.35;;;;;;;24.28;44.44;100448.62;4500858;31;20139;-63
2022/05/31 09:59:08;;;;;;;5.53;2.70;;;;;;;24.82;43.24;100444.06;4501372;31;20150;-64
2022/05/31 10:01:47;;;;;;;4.55;1.70;;;;;;;25.47;41.03;100443.87;4500967;31;20105;-64
2022/05/31 10:04:30;;;;;;;5.85;2.10;;;;;;;26.17;41.09;100440.50;4502756;31;20198;-64
2022/05/31 10:06:59;;;;;;;5.00;2.17;;;;;;;26.59;39.61;100436.34;4495873;31;20127;-64
2022/05/31 10:09:43;;;;;;;6.18;2.00;;;;;;;25.53;41.72;100435.34;4487245;31;20186;-64
2022/05/31 10:12:15;;;;;;;22.98;2.30;;;;;;;25.17;42.07;100439.75;4472885;31;20114;-63
2022/05/31 10:14:46;;;;;;;4.47;1.98;;;;;;;25.43;42.34;100435.16;4487372;31;20484;-63
2022/05/31 10:17:35;;;;;;;5.32;2.35;;;;;;;26.03;41.03;100432.59;4487249;31;20424;-63
2022/05/31 10:20:13;;;;;;;5.45;2.20;;;;;;;26.05;40.62;100425.25;4487612;31;20977;-64
2022/05/31 10:22:54;;;;;;;6.82;2.20;;;;;;;25.52;40.75;100423.69;4487154;31;20679;-64
2022/05/31 10:25:24;;;;;;;10.40;2.10;;;;;;;25.63;41.52;100427.44;4487282;31;20087;-64
2022/05/31 10:28:02;;;;;;;7.05;2.10;;;;;;;24.85;43.92;100417.75;4501804;31;20092;-64
2022/05/31 10:30:31;;;;;;;10.70;2.90;;;;;;;24.81;43.75;100416.25;4502861;31;20126;-64
2022/05/31 10:33:08;;;;;;;4.65;2.17;;;;;;;24.10;45.52;100422.94;4503051;31;20071;-64
2022/05/31 10:35:40;;;;;;;2.95;1.77;;;;;;;24.78;44.14;100419.16;4503009;31;20159;-63
2022/05/31 10:38:16;;;;;;;6.93;2.15;;;;;;;24.77;43.90;100414.72;4502832;31;20131;-63
2022/05/31 10:40:50;;;;;;;2.12;1.92;;;;;;;24.37;41.79;100419.31;4498410;31;20147;-63
2022/05/31 10:43:44;;;;;;;6.05;2.37;;;;;;;23.32;43.73;100423.56;4492482;31;20441;-63
2022/05/31 10:46:19;;;;;;;14.32;2.03;;;;;;;24.24;44.48;100422.88;4493474;31;20103;-63
2022/05/31 10:48:52;;;;;;;3.10;1.90;;;;;;;25.24;41.96;100419.47;4492199;31;20145;-63
2022/05/31 10:51:21;;;;;;;2.92;1.77;;;;;;;25.75;38.44;100415.72;4493455;31;20153;-63
2022/05/31 10:54:06;;;;;;;4.45;1.83;;;;;;;25.96;39.81;100429.47;4495774;31;20109;-63
2022/05/31 10:56:36;;;;;;;6.85;1.87;;;;;;;25.88;39.53;100418.41;4502780;31;20763;-63
2022/05/31 10:59:23;;;;;;;2.28;1.77;;;;;;;26.52;38.17;100418.91;4502001;31;20780;-63
2022/05/31 11:01:53;;;;;;;4.65;1.87;;;;;;;26.28;38.76;100420.78;4501698;31;20609;-62
2022/05/31 11:04:49;;;;;;;6.12;1.98;;;;;;;25.30;40.65;100418.16;4494375;31;20156;-63
2022/05/31 11:14:01;;;;;;;1.63;1.53;;;;;;;24.83;42.59;100408.06;4502447;31;20114;-63
2022/05/31 11:16:55;;;;;;;3.35;2.45;;;;;;;25.09;41.21;100408.88;4502769;31;20068;-63
2022/05/31 11:19:31;;;;;;;6.40;2.30;;;;;;;25.18;40.53;100409.13;4502707;31;20076;-63
2022/05/31 11:22:16;;;;;;;2.70;1.80;;;;;;;26.14;39.47;100400.22;4502468;31;20414;-63
2022/05/31 11:24:50;;;;;;;2.50;2.23;;;;;;;27.46;37.76;100400.63;4492146;31;20103;-63
2022/05/31 11:27:58;;;;;;;7.55;2.50;;;;;;;27.75;36.72;100401.81;4486921;31;20774;-63
2022/05/31 11:30:50;;;;;;;6.87;2.22;;;;;;;26.42;38.12;100399.81;4417364;32;20591;-63
2022/05/31 11:33:59;;;;;;;5.85;2.47;;;;;;;26.22;39.48;100395.97;4491052;31;20092;-63
2022/05/31 11:36:41;;;;;;;3.20;2.25;;;;;;;26.80;38.10;100384.28;4490174;31;20095;-63
2022/05/31 11:39:31;;;;;;;6.35;4.07;;;;;;;25.67;39.30;100393.84;4502646;31;20099;-63
2022/05/31 11:42:33;;;;;;;2.60;2.40;;;;;;;27.27;36.96;100377.78;4487652;31;20163;-63
2022/05/31 11:45:18;;;;;;;5.60;2.42;;;;;;;29.37;34.65;100384.12;4489279;31;20137;-63
2022/05/31 11:48:07;;;;;;;6.97;2.30;;;;;;;28.85;32.80;100388.78;4492886;31;20195;-63
2022/05/31 11:50:41;;;;;;;8.00;2.40;;;;;;;30.28;31.66;100373.91;4488096;31;20087;-63
2022/05/31 11:53:38;;;;;;;5.40;2.12;;;;;;;30.00;31.91;100373.78;4488188;31;20128;-63
2022/05/31 11:56:09;;;;;;;3.03;2.17;;;;;;;30.24;32.34;100377.94;4429215;31;20094;-63
2022/05/31 11:58:44;;;;;;;3.85;2.53;;;;;;;29.62;32.28;100376.50;4494813;31;20116;-63
2022/05/31 12:01:49;;;;;;;4.03;2.78;;;;;;;28.77;34.70;100381.31;4501130;31;20435;-63
2022/05/31 12:04:36;;;;;;;4.82;3.28;;;;;;;28.68;32.40;100368.56;4500092;31;20152;-63
2022/05/31 12:07:17;;;;;;;6.00;3.90;;;;;;;27.30;34.89;100361.28;4498510;31;20665;-63
2022/05/31 12:09:47;;;;;;;3.58;2.90;;;;;;;25.91;37.54;100364.19;4495770;31;20151;-63
2022/05/31 12:12:22;;;;;;;4.35;2.75;;;;;;;26.79;36.17;100366.37;4499216;31;80709;-63
2022/05/31 12:14:54;;;;;;;7.43;3.83;;;;;;;29.14;34.48;100355.50;4501361;31;20143;-63
2022/05/31 12:17:39;;;;;;;13.07;4.55;;;;;;;30.02;32.67;100350.03;4498046;31;20084;-63
2022/05/31 12:20:22;;;;;;;7.12;4.60;;;;;;;28.01;33.30;100350.84;4496105;31;20099;-63
2022/05/31 12:23:09;;;;;;;6.82;4.43;;;;;;;27.04;36.04;100349.88;4501849;31;20174;-63